Time;durP1;ratioP1;P1;durP2;ratioP2;P2;SDS_P1;SDS_P2;PMS_P1;PMS_P2;Temp;Humidity;BMP_temperature;BMP_pressure;BME280_temperature;BME280_humidity;BME280_pressure;Samples;Min_cycle;Max_cycle;Signal;HPM_P1;HPM_P2
2023/08/17 00:00:54;;;;;;;15.82;7.43;;;;;;;;;;5010761;28;20018;-73
2023/08/17 00:03:19;;;;;;;15.03;7.60;;;;;;;;;;5012201;28;20030;-73
2023/08/17 00:05:44;;;;;;;13.53;7.37;;;;;;;;;;5011748;28;20021;-73
2023/08/17 00:08:09;;;;;;;18.13;7.55;;;;;;;;;;5013282;28;20021;-73
2023/08/17 00:10:35;;;;;;;16.00;7.40;;;;;;;;;;5012663;28;20025;-73
2023/08/17 00:13:02;;;;;;;16.23;8.38;;;;;;;;;;5012678;28;20029;-73
2023/08/17 00:15:27;;;;;;;19.13;7.70;;;;;;;;;;5009515;28;20037;-73
2023/08/17 00:17:52;;;;;;;17.47;8.03;;;;;;;;;;5012909;28;20018;-73
2023/08/17 00:20:17;;;;;;;15.37;7.73;;;;;;;;;;5008543;28;20097;-73
2023/08/17 00:22:42;;;;;;;17.87;8.37;;;;;;;;;;5009939;28;20308;-73
2023/08/17 00:25:08;;;;;;;19.80;9.13;;;;;;;;;;5010826;28;20025;-73
2023/08/17 00:27:33;;;;;;;25.52;7.47;;;;;;;;;;5010230;28;20014;-73
2023/08/17 00:29:58;;;;;;;11.32;6.75;;;;;;;;;;5011329;28;20037;-73
2023/08/17 00:32:23;;;;;;;21.60;7.47;;;;;;;;;;5010389;28;20026;-73
2023/08/17 00:34:49;;;;;;;16.53;7.57;;;;;;;;;;5010755;28;20583;-73
2023/08/17 00:37:14;;;;;;;15.40;7.67;;;;;;;;;;5009064;28;20018;-73
2023/08/17 00:39:39;;;;;;;14.57;7.23;;;;;;;;;;5009772;28;20300;-73
2023/08/17 00:42:04;;;;;;;15.07;8.17;;;;;;;;;;5011088;28;20277;-73
2023/08/17 00:44:29;;;;;;;15.93;7.25;;;;;;;;;;5011147;28;20030;-73
2023/08/17 00:46:55;;;;;;;15.80;7.80;;;;;;;;;;5010946;28;20017;-72
2023/08/17 00:49:20;;;;;;;18.02;8.07;;;;;;;;;;5008013;28;20355;-72
2023/08/17 00:51:45;;;;;;;12.07;7.10;;;;;;;;;;5008685;28;20030;-72
2023/08/17 00:54:11;;;;;;;15.00;7.38;;;;;;;;;;5010654;28;20363;-73
2023/08/17 00:56:37;;;;;;;16.13;7.63;;;;;;;;;;5008809;28;20029;-72
2023/08/17 00:59:02;;;;;;;14.63;6.95;;;;;;;;;;5010932;28;20057;-72
2023/08/17 01:01:27;;;;;;;17.42;8.68;;;;;;;;;;5011749;28;20018;-72
2023/08/17 01:03:52;;;;;;;10.63;7.30;;;;;;;;;;5010133;28;20097;-72
2023/08/17 01:06:18;;;;;;;11.15;7.13;;;;;;;;;;5010537;28;20300;-72
2023/08/17 01:08:43;;;;;;;13.30;7.80;;;;;;;;;;5008873;28;20029;-72
2023/08/17 01:11:27;;;;;;;13.77;7.18;;;;;;;;;;5006911;28;20037;-72
2023/08/17 01:13:55;;;;;;;14.02;6.90;;;;;;;;;;5008296;28;20014;-72
2023/08/17 01:16:24;;;;;;;16.67;7.47;;;;;;;;;;5010674;28;20101;-72
2023/08/17 01:18:50;;;;;;;10.68;6.78;;;;;;;;;;5007874;28;20029;-72
2023/08/17 01:21:18;;;;;;;12.32;8.10;;;;;;;;;;5009719;28;20410;-72
2023/08/17 01:23:44;;;;;;;9.75;7.57;;;;;;;;;;5007463;28;20725;-72
2023/08/17 01:26:09;;;;;;;13.02;6.90;;;;;;;;;;5009734;28;20032;-72
2023/08/17 01:28:34;;;;;;;17.23;7.70;;;;;;;;;;5009698;28;20105;-72
2023/08/17 01:31:19;;;;;;;13.90;8.00;;;;;;;;;;5011580;28;20017;-72
2023/08/17 01:33:47;;;;;;;21.77;7.65;;;;;;;;;;5010172;28;20273;-72
2023/08/17 01:36:31;;;;;;;12.18;7.95;;;;;;;;;;5009570;28;20014;-72
2023/08/17 01:38:56;;;;;;;13.55;7.47;;;;;;;;;;5008481;28;20022;-72
2023/08/17 01:41:22;;;;;;;16.30;7.47;;;;;;;;;;5011358;28;20029;-72
2023/08/17 01:43:48;;;;;;;12.20;8.40;;;;;;;;;;5010788;28;20111;-72
2023/08/17 01:46:15;;;;;;;15.10;7.78;;;;;;;;;;5011366;28;20027;-72
2023/08/17 01:48:40;;;;;;;11.27;7.95;;;;;;;;;;5007442;28;20495;-72
2023/08/17 01:51:05;;;;;;;11.75;7.80;;;;;;;;;;5009894;28;20036;-72
2023/08/17 01:53:31;;;;;;;11.87;8.07;;;;;;;;;;5007336;28;20096;-72
2023/08/17 01:55:56;;;;;;;19.50;7.73;;;;;;;;;;5009740;28;20029;-72
2023/08/17 01:58:21;;;;;;;12.93;8.60;;;;;;;;;;5008694;28;20279;-72
2023/08/17 02:00:46;;;;;;;13.03;7.47;;;;;;;;;;5009859;28;20288;-72
2023/08/17 02:03:11;;;;;;;11.73;8.20;;;;;;;;;;5010104;28;20265;-72
2023/08/17 02:05:36;;;;;;;15.20;8.10;;;;;;;;;;5009188;28;20730;-72
2023/08/17 02:08:02;;;;;;;16.23;7.57;;;;;;;;;;5008929;28;20057;-72
2023/08/17 02:10:27;;;;;;;12.40;7.15;;;;;;;;;;5009043;28;20368;-72
2023/08/17 02:12:52;;;;;;;14.00;7.63;;;;;;;;;;5010657;28;20060;-72
2023/08/17 02:15:17;;;;;;;15.67;7.30;;;;;;;;;;5010161;28;20621;-72
2023/08/17 02:17:42;;;;;;;15.37;7.50;;;;;;;;;;5008819;28;20033;-72
2023/08/17 02:20:08;;;;;;;13.87;7.27;;;;;;;;;;5009498;28;20681;-72
2023/08/17 02:22:34;;;;;;;9.82;7.15;;;;;;;;;;5008863;28;20025;-72
2023/08/17 02:24:59;;;;;;;12.95;7.13;;;;;;;;;;5009178;28;20097;-72
2023/08/17 02:27:24;;;;;;;8.98;6.72;;;;;;;;;;5010259;28;20022;-72
2023/08/17 02:29:49;;;;;;;14.40;7.00;;;;;;;;;;5007894;28;20064;-72
2023/08/17 02:32:14;;;;;;;11.75;6.53;;;;;;;;;;5009057;28;20399;-72
2023/08/17 02:34:40;;;;;;;11.07;6.60;;;;;;;;;;5010382;28;20033;-72
2023/08/17 02:37:05;;;;;;;9.03;6.50;;;;;;;;;;5009742;28;20288;-72
2023/08/17 02:39:30;;;;;;;13.73;6.23;;;;;;;;;;5007458;28;20034;-72
2023/08/17 02:41:55;;;;;;;11.85;6.07;;;;;;;;;;5009972;28;20022;-72
2023/08/17 02:44:21;;;;;;;8.07;5.67;;;;;;;;;;5006857;28;20045;-72
2023/08/17 02:46:46;;;;;;;10.18;5.93;;;;;;;;;;5009743;28;20264;-72
2023/08/17 02:49:11;;;;;;;10.73;6.40;;;;;;;;;;5006279;28;20445;-72
2023/08/17 02:51:36;;;;;;;11.20;6.03;;;;;;;;;;5009579;28;20026;-72
2023/08/17 02:54:01;;;;;;;9.80;5.63;;;;;;;;;;5007335;28;20022;-72
2023/08/17 02:56:27;;;;;;;10.00;6.13;;;;;;;;;;5006485;28;20029;-72
2023/08/17 02:58:52;;;;;;;9.98;5.53;;;;;;;;;;5008731;28;20430;-72
2023/08/17 03:01:17;;;;;;;9.07;6.03;;;;;;;;;;5009389;28;20024;-72
2023/08/17 03:03:42;;;;;;;8.60;5.93;;;;;;;;;;5009423;28;20335;-72
2023/08/17 03:06:07;;;;;;;13.07;5.72;;;;;;;;;;5006913;28;20579;-72
2023/08/17 03:08:33;;;;;;;12.20;5.90;;;;;;;;;;5009852;28;20418;-72
2023/08/17 03:10:58;;;;;;;11.50;6.38;;;;;;;;;;5008535;28;20261;-72
2023/08/17 03:13:23;;;;;;;8.07;5.87;;;;;;;;;;5012711;28;20033;-72
2023/08/17 03:15:48;;;;;;;11.00;6.40;;;;;;;;;;5008832;28;20288;-72
2023/08/17 03:18:13;;;;;;;12.80;8.00;;;;;;;;;;5008616;28;20268;-71
2023/08/17 03:20:39;;;;;;;10.20;6.77;;;;;;;;;;5009757;28;20277;-72
2023/08/17 03:23:08;;;;;;;13.23;6.43;;;;;;;;;;5007309;28;20319;-72
2023/08/17 03:25:33;;;;;;;13.32;6.68;;;;;;;;;;5009099;28;20367;-72
2023/08/17 03:27:59;;;;;;;15.18;7.30;;;;;;;;;;5006499;28;20448;-72
2023/08/17 03:30:24;;;;;;;18.65;6.85;;;;;;;;;;5007594;28;20497;-72
2023/08/17 03:32:49;;;;;;;11.93;6.53;;;;;;;;;;5008966;28;20087;-72
2023/08/17 03:35:14;;;;;;;13.40;6.90;;;;;;;;;;5009064;28;20025;-72
2023/08/17 03:37:39;;;;;;;11.97;7.07;;;;;;;;;;5008559;28;20272;-71
2023/08/17 03:40:05;;;;;;;11.70;7.33;;;;;;;;;;5008818;28;20335;-72
2023/08/17 03:42:30;;;;;;;17.88;7.28;;;;;;;;;;5007359;28;20277;-72
2023/08/17 03:44:55;;;;;;;18.43;7.13;;;;;;;;;;5008602;28;20026;-72
2023/08/17 03:47:21;;;;;;;11.20;7.30;;;;;;;;;;5008700;28;20018;-71
2023/08/17 03:49:47;;;;;;;12.47;6.67;;;;;;;;;;5007103;28;20123;-71
2023/08/17 03:52:12;;;;;;;18.05;6.78;;;;;;;;;;5009672;28;20026;-72
2023/08/17 03:54:37;;;;;;;13.02;7.55;;;;;;;;;;5008445;28;20021;-72
2023/08/17 03:57:02;;;;;;;11.13;6.40;;;;;;;;;;5010428;28;20092;-72
2023/08/17 03:59:27;;;;;;;12.82;6.68;;;;;;;;;;5009744;28;20792;-72
2023/08/17 04:01:53;;;;;;;15.77;7.13;;;;;;;;;;5009937;28;20028;-72
2023/08/17 04:04:18;;;;;;;12.18;6.78;;;;;;;;;;5012620;28;20029;-72
2023/08/17 04:06:43;;;;;;;12.00;6.93;;;;;;;;;;5010611;28;20525;-72
2023/08/17 04:09:09;;;;;;;13.70;7.10;;;;;;;;;;5008482;28;20319;-72
2023/08/17 04:11:37;;;;;;;12.55;7.40;;;;;;;;;;5012107;28;20022;-72
2023/08/17 04:14:03;;;;;;;16.88;8.00;;;;;;;;;;5011497;28;20027;-72
2023/08/17 04:16:28;;;;;;;9.93;6.97;;;;;;;;;;5002876;28;20080;-72
2023/08/17 04:18:53;;;;;;;16.63;7.33;;;;;;;;;;5005864;28;20054;-72
2023/08/17 04:21:18;;;;;;;14.37;7.23;;;;;;;;;;5012316;28;20265;-72
2023/08/17 04:23:43;;;;;;;15.35;6.90;;;;;;;;;;5012880;28;20796;-72
2023/08/17 04:26:09;;;;;;;13.30;7.63;;;;;;;;;;5003916;28;20089;-72
2023/08/17 04:28:34;;;;;;;13.67;7.97;;;;;;;;;;5008600;28;22119;-72
2023/08/17 04:30:59;;;;;;;12.80;7.40;;;;;;;;;;5008131;28;20027;-72
2023/08/17 04:33:24;;;;;;;14.23;7.10;;;;;;;;;;5011073;28;20550;-72
2023/08/17 04:35:49;;;;;;;12.23;7.53;;;;;;;;;;5011239;28;20411;-72
2023/08/17 04:38:14;;;;;;;18.33;7.20;;;;;;;;;;5010484;28;20017;-72
2023/08/17 04:40:40;;;;;;;10.93;7.13;;;;;;;;;;5011845;28;20112;-72
2023/08/17 04:43:05;;;;;;;18.95;8.05;;;;;;;;;;5010742;28;20111;-71
2023/08/17 04:45:30;;;;;;;16.60;7.93;;;;;;;;;;5009909;28;20045;-72
2023/08/17 04:47:55;;;;;;;13.60;8.15;;;;;;;;;;5008033;28;20037;-71
2023/08/17 04:50:21;;;;;;;10.27;7.47;;;;;;;;;;5003797;28;20463;-71
2023/08/17 04:52:46;;;;;;;13.00;7.82;;;;;;;;;;5008422;28;20272;-71
2023/08/17 04:55:12;;;;;;;11.57;7.15;;;;;;;;;;5006613;28;20474;-72
2023/08/17 04:57:38;;;;;;;16.27;8.43;;;;;;;;;;5004430;28;20022;-71
2023/08/17 05:00:04;;;;;;;12.07;7.77;;;;;;;;;;5006029;28;20539;-72
2023/08/17 05:02:29;;;;;;;18.23;8.75;;;;;;;;;;5007466;28;20091;-72
2023/08/17 05:04:55;;;;;;;20.33;8.13;;;;;;;;;;5007761;28;20586;-72
2023/08/17 05:07:20;;;;;;;13.80;8.30;;;;;;;;;;5008670;28;20093;-72
2023/08/17 05:09:45;;;;;;;16.03;8.63;;;;;;;;;;5008390;28;20422;-72
2023/08/17 05:12:10;;;;;;;20.13;8.50;;;;;;;;;;5007161;28;20104;-72
2023/08/17 05:14:35;;;;;;;16.55;8.75;;;;;;;;;;5003934;28;20430;-72
2023/08/17 05:17:01;;;;;;;15.33;8.23;;;;;;;;;;5008896;28;20024;-72
2023/08/17 05:19:26;;;;;;;13.53;8.33;;;;;;;;;;5005927;28;20459;-72
2023/08/17 05:21:51;;;;;;;13.70;8.33;;;;;;;;;;5005765;28;20280;-72
2023/08/17 05:24:17;;;;;;;13.80;8.95;;;;;;;;;;5003567;28;20359;-72
2023/08/17 05:26:42;;;;;;;19.27;9.55;;;;;;;;;;5007307;28;20493;-72
2023/08/17 05:29:07;;;;;;;19.90;9.47;;;;;;;;;;5006611;28;20049;-72
2023/08/17 05:31:32;;;;;;;15.37;9.13;;;;;;;;;;5002883;28;20284;-72
2023/08/17 05:33:57;;;;;;;14.93;10.23;;;;;;;;;;5006214;28;20513;-72
2023/08/17 05:36:22;;;;;;;20.17;9.80;;;;;;;;;;5005481;28;20027;-72
2023/08/17 05:38:48;;;;;;;17.30;9.93;;;;;;;;;;5006738;28;20737;-72
2023/08/17 05:41:13;;;;;;;15.70;11.07;;;;;;;;;;5006024;28;20029;-72
2023/08/17 05:43:38;;;;;;;13.73;9.47;;;;;;;;;;5006383;28;20265;-72
2023/08/17 05:46:03;;;;;;;20.17;11.48;;;;;;;;;;5002366;28;20691;-72
2023/08/17 05:48:29;;;;;;;20.90;11.73;;;;;;;;;;5003845;28;20021;-72
2023/08/17 05:50:55;;;;;;;22.40;10.27;;;;;;;;;;5003652;28;20716;-72
2023/08/17 05:53:20;;;;;;;21.02;10.80;;;;;;;;;;5004450;28;20092;-72
2023/08/17 05:55:45;;;;;;;20.95;10.45;;;;;;;;;;5005983;28;20510;-72
2023/08/17 05:58:10;;;;;;;16.10;10.30;;;;;;;;;;5000999;28;20388;-72
2023/08/17 06:00:36;;;;;;;18.93;10.37;;;;;;;;;;5003232;28;20109;-72
2023/08/17 06:03:01;;;;;;;17.97;10.53;;;;;;;;;;5006557;28;20386;-72
2023/08/17 06:05:30;;;;;;;24.15;11.25;;;;;;;;;;5008788;28;20277;-72
2023/08/17 06:07:55;;;;;;;15.82;9.35;;;;;;;;;;5005978;28;20478;-72
2023/08/17 06:10:24;;;;;;;18.05;10.98;;;;;;;;;;5009732;28;20076;-72
2023/08/17 06:12:50;;;;;;;16.40;10.77;;;;;;;;;;5011092;28;20025;-72
2023/08/17 06:15:15;;;;;;;17.50;10.27;;;;;;;;;;5008304;28;20025;-72
2023/08/17 06:17:40;;;;;;;19.87;10.30;;;;;;;;;;5006965;28;20303;-72
2023/08/17 06:20:09;;;;;;;17.90;9.27;;;;;;;;;;5005174;28;20796;-72
2023/08/17 06:22:34;;;;;;;15.52;9.50;;;;;;;;;;5007928;28;20025;-72
2023/08/17 06:25:00;;;;;;;15.47;9.20;;;;;;;;;;5006096;28;20014;-72
2023/08/17 06:27:25;;;;;;;22.27;10.33;;;;;;;;;;5006648;28;20792;-72
2023/08/17 06:29:50;;;;;;;17.83;9.83;;;;;;;;;;5006831;28;20026;-72
2023/08/17 06:32:16;;;;;;;20.73;9.10;;;;;;;;;;5010338;28;20326;-72
2023/08/17 06:34:41;;;;;;;13.50;9.57;;;;;;;;;;5010642;28;20018;-72
2023/08/17 06:37:06;;;;;;;12.75;9.45;;;;;;;;;;5007379;28;20615;-72
2023/08/17 06:39:32;;;;;;;15.60;9.17;;;;;;;;;;5008751;28;20052;-72
2023/08/17 06:41:57;;;;;;;14.73;9.43;;;;;;;;;;5008493;28;20670;-72
2023/08/17 06:44:22;;;;;;;21.60;9.73;;;;;;;;;;5010666;28;20471;-72
2023/08/17 06:46:48;;;;;;;19.77;9.10;;;;;;;;;;5007177;28;20276;-72
2023/08/17 06:49:13;;;;;;;13.47;8.87;;;;;;;;;;5006832;28;20053;-72
2023/08/17 06:51:38;;;;;;;16.13;9.67;;;;;;;;;;5007798;28;20360;-72
2023/08/17 06:54:04;;;;;;;13.82;8.25;;;;;;;;;;5008735;28;20399;-72
2023/08/17 06:56:29;;;;;;;14.95;9.80;;;;;;;;;;5009070;28;20037;-72
2023/08/17 06:58:54;;;;;;;16.00;8.97;;;;;;;;;;5005509;28;20492;-73
2023/08/17 07:01:20;;;;;;;19.50;8.30;;;;;;;;;;5007148;28;20276;-73
2023/08/17 07:03:45;;;;;;;14.18;8.23;;;;;;;;;;5007880;28;20269;-73
2023/08/17 07:06:10;;;;;;;16.03;7.63;;;;;;;;;;5009422;28;20070;-73
2023/08/17 07:08:35;;;;;;;14.07;8.13;;;;;;;;;;5008765;28;20026;-73
2023/08/17 07:11:00;;;;;;;13.27;7.82;;;;;;;;;;5006198;28;20107;-73
2023/08/17 07:13:25;;;;;;;17.05;7.13;;;;;;;;;;5007855;28;20517;-73
2023/08/17 07:15:51;;;;;;;12.10;7.90;;;;;;;;;;5007662;28;20022;-72
2023/08/17 07:18:16;;;;;;;13.97;7.43;;;;;;;;;;5006065;28;20080;-72
2023/08/17 07:20:41;;;;;;;12.93;8.25;;;;;;;;;;5008174;28;20351;-72
2023/08/17 07:23:06;;;;;;;15.10;7.53;;;;;;;;;;5006660;28;20034;-72
2023/08/17 07:25:32;;;;;;;9.43;6.85;;;;;;;;;;5009122;28;20356;-72
2023/08/17 07:27:58;;;;;;;17.27;7.65;;;;;;;;;;5009084;28;20033;-72
2023/08/17 07:30:23;;;;;;;15.10;7.50;;;;;;;;;;5013886;28;20029;-72
2023/08/17 07:32:48;;;;;;;11.00;7.10;;;;;;;;;;5014047;28;20026;-72
2023/08/17 07:35:13;;;;;;;13.97;8.63;;;;;;;;;;5012355;28;20483;-72
2023/08/17 07:37:38;;;;;;;15.00;8.03;;;;;;;;;;5013638;28;20014;-72
2023/08/17 07:40:04;;;;;;;13.93;8.07;;;;;;;;;;5013614;28;20398;-72
2023/08/17 07:42:29;;;;;;;16.02;8.13;;;;;;;;;;5013937;28;20018;-72
2023/08/17 07:44:54;;;;;;;14.80;8.67;;;;;;;;;;5013860;28;20025;-72
2023/08/17 07:47:19;;;;;;;17.23;8.45;;;;;;;;;;5012918;28;20030;-72
2023/08/17 07:49:44;;;;;;;14.17;7.60;;;;;;;;;;5013724;28;20471;-72
2023/08/17 07:52:10;;;;;;;17.30;7.47;;;;;;;;;;5012103;28;20749;-72
2023/08/17 07:54:35;;;;;;;14.55;7.13;;;;;;;;;;5013573;28;20026;-72
2023/08/17 07:57:00;;;;;;;14.03;7.87;;;;;;;;;;5012438;28;20030;-72
2023/08/17 07:59:25;;;;;;;14.90;6.90;;;;;;;;;;5013276;28;20291;-72
2023/08/17 08:01:51;;;;;;;13.17;7.10;;;;;;;;;;5011712;28;20538;-72
2023/08/17 08:04:16;;;;;;;14.25;7.53;;;;;;;;;;5012134;28;20013;-72
2023/08/17 08:06:42;;;;;;;14.82;7.78;;;;;;;;;;5013397;28;20105;-72
2023/08/17 08:09:07;;;;;;;16.63;7.93;;;;;;;;;;5013018;28;20036;-72
2023/08/17 08:11:32;;;;;;;13.23;8.57;;;;;;;;;;5012491;28;20034;-72
2023/08/17 08:13:57;;;;;;;12.83;7.87;;;;;;;;;;5012079;28;20018;-72
2023/08/17 08:16:22;;;;;;;15.32;8.73;;;;;;;;;;5013109;28;20280;-72
2023/08/17 08:18:48;;;;;;;15.40;9.10;;;;;;;;;;5011997;28;20029;-72
2023/08/17 08:21:13;;;;;;;14.50;8.73;;;;;;;;;;5012945;28;20276;-72
2023/08/17 08:23:38;;;;;;;18.97;10.37;;;;;;;;;;5013240;28;20063;-72
2023/08/17 08:26:03;;;;;;;13.95;8.73;;;;;;;;;;5011812;28;20061;-72
2023/08/17 08:28:28;;;;;;;17.27;8.32;;;;;;;;;;5012637;28;20021;-72
2023/08/17 08:30:54;;;;;;;20.10;9.27;;;;;;;;;;5012118;28;20021;-72
2023/08/17 08:33:19;;;;;;;14.00;8.90;;;;;;;;;;5012819;28;20109;-72
2023/08/17 08:35:45;;;;;;;15.73;8.97;;;;;;;;;;5012974;28;20021;-72
2023/08/17 08:38:10;;;;;;;19.95;8.80;;;;;;;;;;5011045;28;20057;-72
2023/08/17 08:40:37;;;;;;;22.27;8.07;;;;;;;;;;5011406;28;20041;-72
2023/08/17 08:43:02;;;;;;;16.23;9.10;;;;;;;;;;5012833;28;20536;-72
2023/08/17 08:45:28;;;;;;;17.75;9.02;;;;;;;;;;5011863;28;20026;-72
2023/08/17 08:47:53;;;;;;;15.95;8.25;;;;;;;;;;5012360;28;20490;-72
2023/08/17 08:50:21;;;;;;;13.10;8.23;;;;;;;;;;5012428;28;20022;-72
2023/08/17 08:53:02;;;;;;;17.30;9.05;;;;;;;;;;5010874;28;20029;-72
2023/08/17 08:55:33;;;;;;;24.08;9.18;;;;;;;;;;5011690;28;20018;-72
2023/08/17 08:57:59;;;;;;;17.10;9.02;;;;;;;;;;5011092;28;20101;-72
2023/08/17 09:00:24;;;;;;;32.55;9.57;;;;;;;;;;5010455;28;20128;-72
2023/08/17 09:02:50;;;;;;;17.00;8.82;;;;;;;;;;5011101;28;20147;-72
2023/08/17 09:05:16;;;;;;;20.73;8.35;;;;;;;;;;5011036;28;20550;-72
2023/08/17 09:07:42;;;;;;;16.08;9.40;;;;;;;;;;5011905;28;20013;-72
2023/08/17 09:10:07;;;;;;;16.10;8.98;;;;;;;;;;5010460;28;20471;-72
2023/08/17 09:12:33;;;;;;;20.77;9.38;;;;;;;;;;5010303;28;20032;-72
2023/08/17 09:14:58;;;;;;;21.07;9.50;;;;;;;;;;5011727;28;20084;-72
2023/08/17 09:17:27;;;;;;;19.98;10.48;;;;;;;;;;5011883;28;20265;-72
2023/08/17 09:19:52;;;;;;;19.83;10.18;;;;;;;;;;5011742;28;20034;-72
2023/08/17 09:22:24;;;;;;;20.02;11.18;;;;;;;;;;5011984;28;20109;-72
2023/08/17 09:24:49;;;;;;;18.15;11.20;;;;;;;;;;5004840;28;20017;-72
2023/08/17 09:27:14;;;;;;;19.08;10.73;;;;;;;;;;5006172;28;21102;-72
2023/08/17 09:29:42;;;;;;;17.80;10.60;;;;;;;;;;5007295;28;20033;-72
2023/08/17 09:32:07;;;;;;;21.48;10.07;;;;;;;;;;5007987;28;20276;-72
2023/08/17 09:34:33;;;;;;;18.48;11.00;;;;;;;;;;5010632;28;20022;-72
2023/08/17 09:37:04;;;;;;;21.88;11.10;;;;;;;;;;5007269;28;20025;-72
2023/08/17 09:39:30;;;;;;;19.67;10.27;;;;;;;;;;5008166;28;20466;-72
2023/08/17 09:41:55;;;;;;;22.48;10.68;;;;;;;;;;5008137;28;20038;-72
2023/08/17 09:44:21;;;;;;;22.77;10.27;;;;;;;;;;5010211;28;20077;-72
2023/08/17 09:46:46;;;;;;;16.38;8.63;;;;;;;;;;5010699;28;20021;-72
2023/08/17 09:49:11;;;;;;;19.23;10.10;;;;;;;;;;5009284;28;20525;-72
2023/08/17 09:51:37;;;;;;;20.10;9.55;;;;;;;;;;5009441;28;20320;-72
2023/08/17 09:54:02;;;;;;;18.77;8.68;;;;;;;;;;5009433;28;20037;-72
2023/08/17 09:56:28;;;;;;;18.02;8.70;;;;;;;;;;5011079;28;20376;-72
2023/08/17 09:58:53;;;;;;;13.73;8.15;;;;;;;;;;5011106;28;20025;-72
2023/08/17 10:01:18;;;;;;;14.07;8.60;;;;;;;;;;5011322;28;20014;-72
2023/08/17 10:03:49;;;;;;;16.33;8.88;;;;;;;;;;5011279;28;20252;-72
2023/08/17 10:06:17;;;;;;;15.60;8.80;;;;;;;;;;5008820;28;20024;-72
2023/08/17 10:08:43;;;;;;;17.10;9.27;;;;;;;;;;5010661;28;20018;-72
2023/08/17 10:11:09;;;;;;;20.98;9.80;;;;;;;;;;5011079;28;20022;-72
2023/08/17 10:14:05;;;;;;;18.42;8.85;;;;;;;;;;5010999;28;20018;-72
2023/08/17 10:16:35;;;;;;;17.70;7.45;;;;;;;;;;5002187;28;20025;-72
2023/08/17 10:19:00;;;;;;;;;;;;;;;;;;5011105;28;20080;-72
2023/08/17 10:21:32;;;;;;;15.02;8.77;;;;;;;;;;5008997;28;19948;-72
2023/08/17 10:23:57;;;;;;;14.57;9.27;;;;;;;;;;5010153;28;20072;-72
2023/08/17 10:26:23;;;;;;;20.20;9.30;;;;;;;;;;5010527;28;20022;-72
2023/08/17 10:28:49;;;;;;;19.92;10.18;;;;;;;;;;5010567;28;20100;-72
2023/08/17 10:31:14;;;;;;;25.48;9.15;;;;;;;;;;5010966;28;20014;-72
2023/08/17 10:33:41;;;;;;;14.73;8.40;;;;;;;;;;5010073;28;20471;-72
2023/08/17 10:36:07;;;;;;;19.40;10.05;;;;;;;;;;5009655;28;20093;-72
2023/08/17 10:38:32;;;;;;;16.25;9.10;;;;;;;;;;5010179;28;20113;-72
2023/08/17 10:41:08;;;;;;;14.60;7.70;;;;;;;;;;5009998;28;20049;-72
2023/08/17 10:43:34;;;;;;;15.65;8.93;;;;;;;;;;5010498;28;20656;-72
2023/08/17 10:46:14;;;;;;;19.65;8.15;;;;;;;;;;5010625;28;20022;-72
2023/08/17 10:48:43;;;;;;;17.08;8.95;;;;;;;;;;5010271;28;20022;-72
2023/08/17 10:51:08;;;;;;;16.92;9.00;;;;;;;;;;5008469;28;20429;-72
2023/08/17 10:53:35;;;;;;;12.30;7.30;;;;;;;;;;5009381;28;20022;-72
2023/08/17 10:56:00;;;;;;;16.42;7.35;;;;;;;;;;5010351;28;20021;-72
2023/08/17 10:58:25;;;;;;;14.20;7.47;;;;;;;;;;5010514;28;20382;-72
2023/08/17 11:00:54;;;;;;;16.98;8.65;;;;;;;;;;5010241;28;20038;-72
2023/08/17 11:03:20;;;;;;;21.60;9.07;;;;;;;;;;5010742;28;20500;-72
2023/08/17 11:05:58;;;;;;;17.35;7.55;;;;;;;;;;5012975;28;20026;-72
2023/08/17 11:08:23;;;;;;;16.38;8.90;;;;;;;;;;5014363;28;20057;-72
2023/08/17 11:10:57;;;;;;;19.97;8.90;;;;;;;;;;5013750;28;20052;-72
2023/08/17 11:13:23;;;;;;;17.48;8.68;;;;;;;;;;5013502;28;20273;-72
2023/08/17 11:15:48;;;;;;;21.17;8.82;;;;;;;;;;5014347;28;20469;-72
2023/08/17 11:18:14;;;;;;;13.25;9.07;;;;;;;;;;5008319;28;20463;-72
2023/08/17 11:20:40;;;;;;;17.20;9.07;;;;;;;;;;5012316;28;20037;-72
2023/08/17 11:23:05;;;;;;;12.13;7.32;;;;;;;;;;5013190;28;20499;-72
2023/08/17 11:25:31;;;;;;;12.27;7.88;;;;;;;;;;5012378;28;20053;-72
2023/08/17 11:27:56;;;;;;;18.83;8.82;;;;;;;;;;5012633;28;20487;-72
2023/08/17 11:30:25;;;;;;;14.77;8.50;;;;;;;;;;5011537;28;20029;-72
2023/08/17 11:32:51;;;;;;;14.93;7.63;;;;;;;;;;5012053;28;20372;-72
2023/08/17 11:35:16;;;;;;;14.02;7.75;;;;;;;;;;5013658;28;20025;-72
2023/08/17 11:37:41;;;;;;;12.15;7.22;;;;;;;;;;5012644;28;20029;-72
2023/08/17 11:40:08;;;;;;;15.43;7.77;;;;;;;;;;5013494;28;20277;-72
2023/08/17 11:42:33;;;;;;;15.80;7.72;;;;;;;;;;5011618;28;20518;-72
2023/08/17 11:44:58;;;;;;;14.30;7.40;;;;;;;;;;5013593;28;20101;-72
2023/08/17 11:47:23;;;;;;;10.50;6.77;;;;;;;;;;5011059;28;20030;-71
2023/08/17 11:49:49;;;;;;;18.70;6.97;;;;;;;;;;5013071;28;20032;-72
2023/08/17 11:52:14;;;;;;;12.07;5.57;;;;;;;;;;5013528;28;20022;-72
2023/08/17 11:54:40;;;;;;;15.88;7.10;;;;;;;;;;5012735;28;20026;-72
2023/08/17 11:57:05;;;;;;;8.63;6.22;;;;;;;;;;5010334;28;20470;-72
2023/08/17 11:59:32;;;;;;;11.27;6.80;;;;;;;;;;5010769;28;20033;-72
2023/08/17 12:01:57;;;;;;;11.57;6.57;;;;;;;;;;5010182;28;20018;-72
2023/08/17 12:04:23;;;;;;;14.70;6.67;;;;;;;;;;5013214;28;20052;-72
2023/08/17 12:06:49;;;;;;;10.27;5.95;;;;;;;;;;5009496;28;20265;-72
2023/08/17 12:09:14;;;;;;;11.30;5.97;;;;;;;;;;5012823;28;20076;-72
2023/08/17 12:11:39;;;;;;;6.85;5.15;;;;;;;;;;5010534;28;20328;-72
2023/08/17 12:14:08;;;;;;;8.50;5.60;;;;;;;;;;5012656;28;20022;-72
2023/08/17 12:16:33;;;;;;;6.78;4.68;;;;;;;;;;5011161;28;20014;-72
2023/08/17 12:18:59;;;;;;;11.80;5.30;;;;;;;;;;5009507;28;20022;-72
2023/08/17 12:21:24;;;;;;;11.05;5.15;;;;;;;;;;5011872;28;20022;-73
2023/08/17 12:23:49;;;;;;;6.97;5.38;;;;;;;;;;5011664;28;20018;-72
2023/08/17 12:26:20;;;;;;;9.40;4.90;;;;;;;;;;5012875;28;20108;-72
2023/08/17 12:28:46;;;;;;;7.35;5.20;;;;;;;;;;5009429;28;20322;-72
2023/08/17 12:31:11;;;;;;;8.52;6.10;;;;;;;;;;5011301;28;20104;-73
2023/08/17 12:33:36;;;;;;;9.93;5.07;;;;;;;;;;5010355;28;20018;-72
2023/08/17 12:36:01;;;;;;;6.60;4.63;;;;;;;;;;5012702;28;20021;-72
2023/08/17 12:38:26;;;;;;;6.25;4.55;;;;;;;;;;5010689;28;20539;-72
2023/08/17 12:40:52;;;;;;;17.87;4.90;;;;;;;;;;5012218;28;20029;-72
2023/08/17 12:43:17;;;;;;;10.52;4.75;;;;;;;;;;5011368;28;20418;-72
2023/08/17 12:45:42;;;;;;;9.27;6.55;;;;;;;;;;5010130;28;20064;-72
2023/08/17 12:48:08;;;;;;;16.27;7.57;;;;;;;;;;5011839;28;20390;-72
2023/08/17 12:50:33;;;;;;;10.73;6.90;;;;;;;;;;5012105;28;20796;-71
2023/08/17 12:52:58;;;;;;;13.95;7.13;;;;;;;;;;5011793;28;20057;-72
2023/08/17 12:55:23;;;;;;;9.85;6.97;;;;;;;;;;5012189;28;20028;-73
2023/08/17 12:57:48;;;;;;;11.60;7.43;;;;;;;;;;5008960;28;20027;-72
2023/08/17 13:00:14;;;;;;;13.70;7.47;;;;;;;;;;5010249;28;20034;-72
2023/08/17 13:02:39;;;;;;;12.82;7.38;;;;;;;;;;5011153;28;20018;-73
2023/08/17 13:05:04;;;;;;;13.68;6.47;;;;;;;;;;5008112;28;20041;-72
2023/08/17 13:07:30;;;;;;;15.23;7.33;;;;;;;;;;5008287;28;20097;-73
2023/08/17 13:09:55;;;;;;;8.30;6.50;;;;;;;;;;5006612;28;20350;-73
2023/08/17 13:12:20;;;;;;;12.43;7.07;;;;;;;;;;5010787;28;20293;-73
2023/08/17 13:14:45;;;;;;;11.55;6.78;;;;;;;;;;5006966;28;20666;-73
2023/08/17 13:17:10;;;;;;;9.70;6.80;;;;;;;;;;5009582;28;20030;-73
2023/08/17 13:19:36;;;;;;;12.10;6.72;;;;;;;;;;5009116;28;20026;-72
2023/08/17 13:22:02;;;;;;;12.40;7.00;;;;;;;;;;5010788;28;20018;-73
2023/08/17 13:24:27;;;;;;;9.85;6.93;;;;;;;;;;5011609;28;20638;-73
2023/08/17 13:26:53;;;;;;;11.90;7.82;;;;;;;;;;5009150;28;20023;-73
2023/08/17 13:29:19;;;;;;;11.00;7.28;;;;;;;;;;5011291;28;20026;-73
2023/08/17 13:31:46;;;;;;;15.80;7.18;;;;;;;;;;5007852;28;20045;-72
2023/08/17 13:34:11;;;;;;;13.93;7.80;;;;;;;;;;5010392;28;20482;-73
2023/08/17 13:36:36;;;;;;;14.57;8.20;;;;;;;;;;5011082;28;20108;-72
2023/08/17 13:39:02;;;;;;;13.40;6.45;;;;;;;;;;5011240;28;20030;-73
2023/08/17 13:41:27;;;;;;;10.85;6.95;;;;;;;;;;5010569;28;20022;-72
2023/08/17 13:43:52;;;;;;;14.43;7.22;;;;;;;;;;5011015;28;20469;-73
2023/08/17 13:46:17;;;;;;;13.20;7.10;;;;;;;;;;5010721;28;20030;-73
2023/08/17 13:48:43;;;;;;;12.90;8.13;;;;;;;;;;5010007;28;20018;-73
2023/08/17 13:51:08;;;;;;;9.17;6.57;;;;;;;;;;5010286;28;20061;-73
2023/08/17 13:53:33;;;;;;;11.97;7.30;;;;;;;;;;5010806;28;20017;-73
2023/08/17 13:55:58;;;;;;;8.83;6.70;;;;;;;;;;5010670;28;20308;-73
2023/08/17 13:58:23;;;;;;;11.20;6.77;;;;;;;;;;5009490;28;20049;-73
2023/08/17 14:00:48;;;;;;;12.23;6.50;;;;;;;;;;5006164;28;20073;-73
2023/08/17 14:03:13;;;;;;;7.67;5.73;;;;;;;;;;5009786;28;20018;-73
2023/08/17 14:05:39;;;;;;;16.37;7.37;;;;;;;;;;5010928;28;20080;-73
2023/08/17 14:08:04;;;;;;;12.38;6.22;;;;;;;;;;5010113;28;20044;-73
2023/08/17 14:10:30;;;;;;;12.60;7.22;;;;;;;;;;5010765;28;20092;-73
2023/08/17 14:12:55;;;;;;;12.13;6.27;;;;;;;;;;5009372;28;20356;-73
2023/08/17 14:15:21;;;;;;;10.60;6.13;;;;;;;;;;5009460;28;20036;-73
2023/08/17 14:17:46;;;;;;;11.45;6.07;;;;;;;;;;5010358;28;20017;-73
2023/08/17 14:20:11;;;;;;;12.75;6.78;;;;;;;;;;5010789;28;20108;-73
2023/08/17 14:22:36;;;;;;;10.97;6.17;;;;;;;;;;5011041;28;20030;-73